createdAt,value
2023-01-27T00:01:18.393Z,11.27
2023-01-27T00:03:47.061Z,10.95
2023-01-27T00:06:15.776Z,10.88
2023-01-27T00:08:44.315Z,11.18
2023-01-27T00:11:30.438Z,10.95
2023-01-27T00:13:59.042Z,10.95
2023-01-27T00:16:28.953Z,11.63
2023-01-27T00:18:57.487Z,10.68
2023-01-27T00:21:43.722Z,11.07
2023-01-27T00:24:31.054Z,11.35
2023-01-27T00:26:59.762Z,11.93
2023-01-27T00:29:28.294Z,11.18
2023-01-27T00:32:15.881Z,11.27
2023-01-27T00:34:44.547Z,11.48
2023-01-27T00:37:13.046Z,11.68
2023-01-27T00:39:41.586Z,11.93
2023-01-27T00:42:10.217Z,11.43
2023-01-27T00:44:38.853Z,12.38
2023-01-27T00:47:08.763Z,11.60
2023-01-27T00:49:37.442Z,11.02
2023-01-27T00:52:06.270Z,12.48
2023-01-27T00:54:34.822Z,12.27
2023-01-27T00:57:04.524Z,11.55
2023-01-27T00:59:33.070Z,11.73
2023-01-27T01:02:01.647Z,11.85
2023-01-27T01:04:31.844Z,12.32
2023-01-27T01:07:00.328Z,12.50
2023-01-27T01:09:29.010Z,12.82
2023-01-27T01:11:57.600Z,11.85
2023-01-27T01:14:26.158Z,12.48
2023-01-27T01:16:56.318Z,12.98
2023-01-27T01:19:25.013Z,11.90
2023-01-27T01:21:54.899Z,12.13
2023-01-27T01:24:23.552Z,12.48
2023-01-27T01:26:52.332Z,12.23
2023-01-27T01:29:20.851Z,12.18
2023-01-27T01:31:52.389Z,13.43
2023-01-27T01:34:21.063Z,12.70
2023-01-27T01:36:49.590Z,12.00
2023-01-27T01:39:19.539Z,13.30
2023-01-27T01:41:48.120Z,12.52
2023-01-27T01:44:22.573Z,12.55
2023-01-27T01:46:51.218Z,13.35
2023-01-27T01:49:21.128Z,13.10
2023-01-27T01:51:51.272Z,13.20
2023-01-27T01:54:23.922Z,13.35
2023-01-27T01:56:54.719Z,13.20
2023-01-27T01:59:27.089Z,13.43
2023-01-27T02:01:56.846Z,13.52
2023-01-27T02:04:27.873Z,13.55
2023-01-27T02:07:00.486Z,13.45
2023-01-27T02:09:30.692Z,13.07
2023-01-27T02:11:59.590Z,12.98
2023-01-27T02:14:28.095Z,13.48
2023-01-27T02:16:56.757Z,14.13
2023-01-27T02:19:28.946Z,13.38
2023-01-27T02:21:58.244Z,13.45
2023-01-27T02:24:32.514Z,13.70
2023-01-27T02:27:02.595Z,13.55
2023-01-27T02:29:31.094Z,13.25
2023-01-27T02:31:59.737Z,13.75
2023-01-27T02:34:31.227Z,13.60
2023-01-27T02:37:03.506Z,13.45
2023-01-27T02:39:35.558Z,14.07
2023-01-27T02:42:06.176Z,14.43
2023-01-27T02:44:34.962Z,13.88
2023-01-27T02:47:03.549Z,13.63
2023-01-27T02:49:32.085Z,13.23
2023-01-27T02:52:00.823Z,13.85
2023-01-27T02:54:29.400Z,13.95
2023-01-27T02:56:58.141Z,13.95
2023-01-27T02:59:28.134Z,14.13
2023-01-27T03:01:56.693Z,13.70
2023-01-27T03:04:25.299Z,14.70
2023-01-27T03:06:54.008Z,14.20
2023-01-27T03:09:22.542Z,13.88
2023-01-27T03:12:08.781Z,13.68
2023-01-27T03:14:56.366Z,13.60
2023-01-27T03:17:42.462Z,14.13
2023-01-27T03:20:13.233Z,14.07
2023-01-27T03:22:41.879Z,14.90
2023-01-27T03:25:11.544Z,14.23
2023-01-27T03:27:40.500Z,14.05
2023-01-27T03:30:12.233Z,14.43
2023-01-27T03:32:46.815Z,13.90
2023-01-27T03:35:15.742Z,14.20
2023-01-27T03:38:02.483Z,14.18
2023-01-27T03:40:48.401Z,13.52
2023-01-27T03:43:34.635Z,13.88
2023-01-27T03:46:17.706Z,13.02
2023-01-27T03:48:49.831Z,12.85
2023-01-27T03:51:18.581Z,13.55
2023-01-27T03:53:47.249Z,13.75
2023-01-27T03:56:15.952Z,13.18
2023-01-27T03:58:44.576Z,13.25
2023-01-27T04:01:19.983Z,13.60
2023-01-27T04:04:07.398Z,12.27
2023-01-27T04:06:53.263Z,13.18
2023-01-27T04:09:23.670Z,13.55
2023-01-27T04:11:59.030Z,12.73
2023-01-27T04:14:29.968Z,13.70
2023-01-27T04:17:01.915Z,13.43
2023-01-27T04:19:30.471Z,13.60
2023-01-27T04:21:59.572Z,12.75
2023-01-27T04:24:28.325Z,13.70
2023-01-27T04:26:58.766Z,13.35
2023-01-27T04:29:29.160Z,13.30
2023-01-27T04:31:59.265Z,12.48
2023-01-27T04:34:28.266Z,12.82
2023-01-27T04:36:56.992Z,12.18
2023-01-27T04:39:25.789Z,12.93
2023-01-27T04:41:54.407Z,12.73
2023-01-27T04:44:22.921Z,12.95
2023-01-27T04:46:51.700Z,12.07
2023-01-27T04:49:22.390Z,12.88
2023-01-27T04:51:51.016Z,12.77
2023-01-27T04:54:19.724Z,12.63
2023-01-27T04:56:57.907Z,11.75
2023-01-27T04:59:26.518Z,12.57
2023-01-27T05:01:55.289Z,12.30
2023-01-27T05:04:26.513Z,12.05
2023-01-27T05:06:55.540Z,12.40
2023-01-27T05:09:24.350Z,12.00
2023-01-27T05:11:52.936Z,12.25
2023-01-27T05:14:23.725Z,12.25
2023-01-27T05:16:52.674Z,13.15
2023-01-27T05:19:21.379Z,12.25
2023-01-27T05:21:51.379Z,12.40
2023-01-27T05:24:19.913Z,12.98
2023-01-27T05:26:48.713Z,11.48
2023-01-27T05:29:17.806Z,12.27
2023-01-27T05:31:46.534Z,12.38
2023-01-27T05:34:15.805Z,12.50
2023-01-27T05:36:44.497Z,12.57
2023-01-27T05:39:14.597Z,12.93
2023-01-27T05:41:43.202Z,11.68
2023-01-27T05:44:12.412Z,12.35
2023-01-27T05:46:42.091Z,12.32
2023-01-27T05:49:10.634Z,11.27
2023-01-27T05:51:40.780Z,11.75
2023-01-27T05:54:09.529Z,11.75
2023-01-27T05:56:40.760Z,12.18
2023-01-27T05:59:09.467Z,11.85
2023-01-27T06:01:38.496Z,11.80
2023-01-27T06:04:07.205Z,11.80
2023-01-27T06:06:35.835Z,11.88
2023-01-27T06:09:04.516Z,11.38
2023-01-27T06:11:33.130Z,12.35
2023-01-27T06:14:03.186Z,11.50
2023-01-27T06:16:31.737Z,12.07
2023-01-27T06:19:00.331Z,11.55
2023-01-27T06:21:28.959Z,11.00
2023-01-27T06:23:58.306Z,11.52
2023-01-27T06:26:27.443Z,11.50
2023-01-27T06:28:58.394Z,11.30
2023-01-27T06:31:28.548Z,11.27
2023-01-27T06:33:57.600Z,11.77
2023-01-27T06:36:26.146Z,11.63
2023-01-27T06:38:54.728Z,11.40
2023-01-27T06:41:23.406Z,11.38
2023-01-27T06:43:51.957Z,11.35
2023-01-27T06:46:20.870Z,10.63
2023-01-27T06:48:51.147Z,12.18
2023-01-27T06:51:19.843Z,11.52
2023-01-27T06:53:48.453Z,11.32
2023-01-27T06:56:17.639Z,10.52
2023-01-27T06:58:46.346Z,10.63
2023-01-27T07:01:15.087Z,10.82
2023-01-27T07:03:45.068Z,11.05
2023-01-27T07:06:16.312Z,10.88
2023-01-27T07:08:47.232Z,10.88
2023-01-27T07:11:15.885Z,11.40
2023-01-27T07:13:44.700Z,10.63
2023-01-27T07:16:13.825Z,11.13
2023-01-27T07:18:42.712Z,13.73
2023-01-27T07:21:11.556Z,11.85
2023-01-27T07:23:41.619Z,11.75
2023-01-27T07:26:24.184Z,13.45
2023-01-27T07:28:54.047Z,14.80
2023-01-27T07:31:22.800Z,15.35
2023-01-27T07:33:51.515Z,15.80
2023-01-27T07:36:20.605Z,15.32
2023-01-27T07:38:52.330Z,16.15
2023-01-27T07:41:23.088Z,15.27
2023-01-27T07:43:52.598Z,16.17
2023-01-27T07:46:21.789Z,15.60
2023-01-27T07:48:50.705Z,16.63
2023-01-27T07:51:19.448Z,16.10
2023-01-27T07:53:48.642Z,16.02
2023-01-27T07:56:18.712Z,14.27
2023-01-27T07:58:47.370Z,15.63
2023-01-27T08:01:16.411Z,14.48
2023-01-27T08:03:45.139Z,14.75
2023-01-27T08:06:14.625Z,14.77
2023-01-27T08:08:43.471Z,14.23
2023-01-27T08:11:14.583Z,14.30
2023-01-27T08:13:44.984Z,14.13
2023-01-27T08:16:14.852Z,14.23
2023-01-27T08:18:43.630Z,14.63
2023-01-27T08:21:13.404Z,14.35
2023-01-27T08:23:42.047Z,13.90
2023-01-27T08:26:10.715Z,13.77
2023-01-27T08:28:40.054Z,13.68
2023-01-27T08:31:11.773Z,14.45
2023-01-27T08:33:40.638Z,13.93
2023-01-27T08:36:10.828Z,13.40
2023-01-27T08:38:39.618Z,13.35
2023-01-27T08:41:09.440Z,13.77
2023-01-27T08:43:38.081Z,14.02
2023-01-27T08:46:07.560Z,13.00
2023-01-27T08:48:38.080Z,12.80
2023-01-27T08:51:07.431Z,13.50
2023-01-27T08:53:37.021Z,13.52
2023-01-27T08:56:07.399Z,13.32
2023-01-27T08:58:36.338Z,13.60
2023-01-27T09:01:06.131Z,13.60
2023-01-27T09:03:36.232Z,13.20
2023-01-27T09:06:06.777Z,13.30
2023-01-27T09:08:35.323Z,13.20
2023-01-27T09:11:11.325Z,13.57
2023-01-27T09:13:39.988Z,13.00
2023-01-27T09:16:09.234Z,12.75
2023-01-27T09:18:39.222Z,14.48
2023-01-27T09:21:08.299Z,14.80
2023-01-27T09:23:36.978Z,12.98
2023-01-27T09:26:05.892Z,13.55
2023-01-27T09:28:34.722Z,13.05
2023-01-27T09:31:03.328Z,12.88
2023-01-27T09:33:32.103Z,13.07
2023-01-27T09:36:06.391Z,13.20
2023-01-27T09:38:37.735Z,13.25
2023-01-27T09:41:55.206Z,14.93
2023-01-27T09:44:52.212Z,15.20
2023-01-27T09:47:39.204Z,18.15
2023-01-27T09:50:44.635Z,15.95
2023-01-27T09:53:52.368Z,16.83
2023-01-27T09:56:28.969Z,15.70
2023-01-27T09:59:13.897Z,13.98
2023-01-27T10:01:51.034Z,15.13
2023-01-27T10:04:38.514Z,14.65
2023-01-27T10:07:48.501Z,13.85
2023-01-27T10:10:33.048Z,14.02
2023-01-27T10:13:14.905Z,13.95
2023-01-27T10:15:58.569Z,13.93
2023-01-27T10:18:38.051Z,13.95
2023-01-27T10:21:12.445Z,14.70
2023-01-27T10:23:48.019Z,13.20
2023-01-27T10:26:30.211Z,12.85
2023-01-27T10:29:04.925Z,14.50
2023-01-27T10:31:37.059Z,14.18
2023-01-27T10:34:10.607Z,13.90
2023-01-27T10:36:43.517Z,13.50
2023-01-27T10:39:17.548Z,13.73
2023-01-27T10:41:53.678Z,14.40
2023-01-27T10:44:35.600Z,13.63
2023-01-27T10:47:10.946Z,14.75
2023-01-27T10:49:41.446Z,15.70
2023-01-27T10:52:12.751Z,17.40
2023-01-27T10:54:43.784Z,17.20
2023-01-27T10:57:16.190Z,16.83
2023-01-27T11:00:10.915Z,16.23
2023-01-27T11:02:42.249Z,15.95
2023-01-27T11:05:12.974Z,14.77
2023-01-27T11:07:47.781Z,13.65
2023-01-27T11:10:18.834Z,14.30
2023-01-27T11:12:50.412Z,15.13
2023-01-27T11:15:21.647Z,15.00
2023-01-27T11:17:53.779Z,14.70
2023-01-27T11:20:29.783Z,14.07
2023-01-27T11:23:04.625Z,14.93
2023-01-27T11:25:43.387Z,14.55
2023-01-27T11:28:24.996Z,14.10
2023-01-27T11:30:59.296Z,14.13
2023-01-27T11:33:32.777Z,14.25
2023-01-27T11:36:01.344Z,14.88
2023-01-27T11:38:30.094Z,14.63
2023-01-27T11:40:58.625Z,13.45
2023-01-27T11:43:28.531Z,13.43
2023-01-27T11:45:59.126Z,13.68
2023-01-27T11:48:27.705Z,13.82
2023-01-27T11:50:56.509Z,13.80
2023-01-27T11:53:27.866Z,13.93
2023-01-27T11:56:00.644Z,14.25
2023-01-27T11:58:35.452Z,14.00
2023-01-27T12:01:06.882Z,13.02
2023-01-27T12:03:47.473Z,13.85
2023-01-27T12:06:17.490Z,14.10
2023-01-27T12:08:47.536Z,13.57
2023-01-27T12:11:25.059Z,13.55
2023-01-27T12:13:56.955Z,13.52
2023-01-27T12:16:33.149Z,13.13
2023-01-27T12:19:04.087Z,13.70
2023-01-27T12:21:39.790Z,12.80
2023-01-27T12:24:14.419Z,13.35
2023-01-27T12:26:44.005Z,13.00
2023-01-27T12:29:20.079Z,13.32
2023-01-27T12:31:50.437Z,13.70
2023-01-27T12:34:30.831Z,12.85
2023-01-27T12:36:59.479Z,12.93
2023-01-27T12:39:42.741Z,13.50
2023-01-27T12:42:40.886Z,12.73
2023-01-27T12:45:23.612Z,13.00
2023-01-27T12:48:01.215Z,12.07
2023-01-27T12:50:31.377Z,12.07
2023-01-27T12:53:07.076Z,12.15
2023-01-27T12:55:40.147Z,12.98
2023-01-27T12:58:28.035Z,12.10
2023-01-27T13:00:59.173Z,12.02
2023-01-27T13:03:27.931Z,12.88
2023-01-27T13:05:57.528Z,13.15
2023-01-27T13:08:26.675Z,12.25
2023-01-27T13:10:57.155Z,12.40
2023-01-27T13:13:26.928Z,12.93
2023-01-27T13:16:01.127Z,12.10
2023-01-27T13:18:34.561Z,13.27
2023-01-27T13:21:12.630Z,12.32
2023-01-27T13:23:42.283Z,12.00
2023-01-27T13:26:18.131Z,11.40
2023-01-27T13:28:53.277Z,12.52
2023-01-27T13:31:31.055Z,12.02
2023-01-27T13:34:02.801Z,12.60
2023-01-27T13:36:36.516Z,12.68
2023-01-27T13:39:09.797Z,12.00
2023-01-27T13:41:42.760Z,12.07
2023-01-27T13:44:19.446Z,12.32
2023-01-27T13:46:49.446Z,11.82
2023-01-27T13:49:27.289Z,11.75
2023-01-27T13:51:55.897Z,12.18
2023-01-27T13:54:25.534Z,11.25
2023-01-27T13:57:13.611Z,11.45
2023-01-27T13:59:48.587Z,11.25
2023-01-27T14:02:48.540Z,11.77
2023-01-27T14:05:32.556Z,11.35
2023-01-27T14:08:08.205Z,11.70
2023-01-27T14:10:38.294Z,11.50
2023-01-27T14:13:18.463Z,10.98
2023-01-27T14:15:52.150Z,10.98
2023-01-27T14:18:23.291Z,11.40
2023-01-27T14:21:04.309Z,11.10
2023-01-27T14:23:43.220Z,11.55
2023-01-27T14:26:32.155Z,10.90
2023-01-27T14:29:07.376Z,11.23
2023-01-27T14:31:47.398Z,10.57
2023-01-27T14:34:33.898Z,11.52
2023-01-27T14:37:10.750Z,11.30
2023-01-27T14:39:44.251Z,10.70
2023-01-27T14:42:16.964Z,10.65
2023-01-27T14:45:03.009Z,10.50
2023-01-27T14:47:35.359Z,10.52
2023-01-27T14:50:17.104Z,10.90
2023-01-27T14:52:48.983Z,10.82
2023-01-27T14:55:46.106Z,10.73
2023-01-27T14:58:28.911Z,10.85
2023-01-27T15:01:04.969Z,10.88
2023-01-27T15:04:22.073Z,9.98
2023-01-27T15:06:56.596Z,10.95
2023-01-27T15:09:50.766Z,11.60
2023-01-27T15:12:37.782Z,11.10
2023-01-27T15:15:43.103Z,10.80
2023-01-27T15:18:30.901Z,10.77
2023-01-27T15:21:39.802Z,10.32
2023-01-27T15:24:32.655Z,10.43
2023-01-27T15:27:01.487Z,10.30
2023-01-27T15:29:31.894Z,10.55
2023-01-27T15:32:29.244Z,9.93
2023-01-27T15:35:38.097Z,10.82
2023-01-27T15:38:37.753Z,9.95
2023-01-27T15:41:16.167Z,10.25
2023-01-27T15:44:05.281Z,10.50
2023-01-27T15:46:35.253Z,10.20
2023-01-27T15:49:05.098Z,10.32
2023-01-27T15:51:37.482Z,10.15
2023-01-27T15:54:06.300Z,10.27
2023-01-27T15:56:43.939Z,10.13
2023-01-27T15:59:16.403Z,10.25
2023-01-27T16:01:45.285Z,9.70
2023-01-27T16:04:17.384Z,9.68
2023-01-27T16:06:48.318Z,9.77
2023-01-27T16:09:25.689Z,10.10
2023-01-27T16:12:03.859Z,9.38
2023-01-27T16:14:50.234Z,10.75
2023-01-27T16:17:25.065Z,10.10
2023-01-27T16:20:13.693Z,9.63
2023-01-27T16:22:45.137Z,10.20
2023-01-27T16:25:23.294Z,10.07
2023-01-27T16:27:58.528Z,10.40
2023-01-27T16:30:29.097Z,10.05
2023-01-27T16:33:06.340Z,10.05
2023-01-27T16:35:40.826Z,10.00
2023-01-27T16:38:17.573Z,8.60
2023-01-27T16:40:50.387Z,9.57
2023-01-27T16:43:21.609Z,10.02
2023-01-27T16:45:51.780Z,10.50
2023-01-27T16:48:28.758Z,10.23
2023-01-27T16:51:07.427Z,10.30
2023-01-27T16:53:36.367Z,10.27
2023-01-27T16:56:06.237Z,9.90
2023-01-27T16:58:46.201Z,10.38
2023-01-27T17:01:21.936Z,10.57
2023-01-27T17:03:50.844Z,10.60
2023-01-27T17:06:19.507Z,10.23
2023-01-27T17:08:48.698Z,10.55
2023-01-27T17:11:24.600Z,10.90
2023-01-27T17:13:59.457Z,10.43
2023-01-27T17:16:30.175Z,10.90
2023-01-27T17:19:04.084Z,12.05
2023-01-27T17:21:36.761Z,11.35
2023-01-27T17:24:12.245Z,11.30
2023-01-27T17:26:41.075Z,11.30
2023-01-27T17:29:15.798Z,10.27
2023-01-27T17:31:44.503Z,10.30
2023-01-27T17:34:17.987Z,10.27
2023-01-27T17:37:09.727Z,10.15
2023-01-27T17:39:39.493Z,10.65
2023-01-27T17:42:08.118Z,10.18
2023-01-27T17:44:38.384Z,10.23
2023-01-27T17:47:07.494Z,10.43
2023-01-27T17:49:36.364Z,9.95
2023-01-27T17:52:05.525Z,10.95
2023-01-27T17:54:37.666Z,10.20
2023-01-27T17:57:09.467Z,10.20
2023-01-27T17:59:41.008Z,11.48
2023-01-27T18:02:16.743Z,11.45
2023-01-27T18:04:45.634Z,11.48
2023-01-27T18:07:20.807Z,12.60
2023-01-27T18:09:54.357Z,14.38
2023-01-27T18:12:34.867Z,13.30
2023-01-27T18:15:40.685Z,13.18
2023-01-27T18:18:23.303Z,12.63
2023-01-27T18:21:04.052Z,12.48
2023-01-27T18:23:34.171Z,13.57
2023-01-27T18:26:07.500Z,12.25
2023-01-27T18:28:38.700Z,12.70
2023-01-27T18:31:16.737Z,11.85
2023-01-27T18:33:46.613Z,12.82
2023-01-27T18:36:23.506Z,11.93
2023-01-27T18:38:52.235Z,12.05
2023-01-27T18:41:25.132Z,12.38
2023-01-27T18:43:53.975Z,11.48
2023-01-27T18:46:24.254Z,12.65
2023-01-27T18:48:53.140Z,11.70
2023-01-27T18:51:21.740Z,12.05
2023-01-27T18:53:50.570Z,11.40
2023-01-27T18:56:19.146Z,11.65
2023-01-27T18:58:48.009Z,11.77
2023-01-27T19:01:21.852Z,12.20
2023-01-27T19:03:52.380Z,11.35
2023-01-27T19:06:20.967Z,11.75
2023-01-27T19:08:52.080Z,11.88
2023-01-27T19:11:20.683Z,11.35
2023-01-27T19:13:49.454Z,12.07
2023-01-27T19:16:18.436Z,11.30
2023-01-27T19:18:47.053Z,11.18
2023-01-27T19:21:17.583Z,11.65
2023-01-27T19:23:48.292Z,12.02
2023-01-27T19:26:18.781Z,11.52
2023-01-27T19:28:47.744Z,11.32
2023-01-27T19:31:16.476Z,11.60
2023-01-27T19:33:45.333Z,11.25
2023-01-27T19:36:22.407Z,11.80
2023-01-27T19:38:52.492Z,11.77
2023-01-27T19:41:21.177Z,11.25
2023-01-27T19:43:50.199Z,11.50
2023-01-27T19:46:22.029Z,11.98
2023-01-27T19:48:50.564Z,11.90
2023-01-27T19:51:20.589Z,11.60
2023-01-27T19:53:49.485Z,12.30
2023-01-27T19:56:19.569Z,12.80
2023-01-27T19:58:51.978Z,15.60
2023-01-27T20:01:20.811Z,15.65
2023-01-27T20:03:49.615Z,13.43
2023-01-27T20:06:21.359Z,14.73
2023-01-27T20:08:53.796Z,14.20
2023-01-27T20:11:36.203Z,15.07
2023-01-27T20:14:07.643Z,13.25
2023-01-27T20:16:36.431Z,14.23
2023-01-27T20:19:05.091Z,14.27
2023-01-27T20:21:35.050Z,14.55
2023-01-27T20:24:04.026Z,13.10
2023-01-27T20:26:33.146Z,13.00
2023-01-27T20:29:02.023Z,13.02
2023-01-27T20:31:30.955Z,13.23
2023-01-27T20:34:00.754Z,13.98
2023-01-27T20:36:29.704Z,13.38
2023-01-27T20:38:59.967Z,13.70
2023-01-27T20:41:29.355Z,13.45
2023-01-27T20:44:21.869Z,13.38
2023-01-27T20:46:51.290Z,13.57
2023-01-27T20:49:20.373Z,12.98
2023-01-27T20:51:50.409Z,13.35
2023-01-27T21:00:19.806Z,13.45
2023-01-27T21:02:49.641Z,13.23
2023-01-27T21:05:19.291Z,13.00
2023-01-27T21:07:48.216Z,13.13
2023-01-27T21:10:20.042Z,12.98
2023-01-27T21:12:48.717Z,12.57
2023-01-27T21:15:18.916Z,13.05
2023-01-27T21:17:47.420Z,11.82
2023-01-27T21:20:16.221Z,12.40
2023-01-27T21:22:46.608Z,12.50
2023-01-27T21:25:16.406Z,12.60
2023-01-27T21:27:45.286Z,12.40
2023-01-27T21:30:14.688Z,12.73
2023-01-27T21:32:44.588Z,12.23
2023-01-27T21:35:13.605Z,12.38
2023-01-27T21:37:42.790Z,12.68
2023-01-27T21:40:13.339Z,12.85
2023-01-27T21:42:59.329Z,13.23
2023-01-27T21:45:28.718Z,12.48
2023-01-27T21:47:58.710Z,12.07
2023-01-27T21:50:27.351Z,12.13
2023-01-27T21:52:55.943Z,12.88
2023-01-27T21:55:25.918Z,12.05
2023-01-27T21:57:55.837Z,11.77
2023-01-27T22:00:26.075Z,11.65
2023-01-27T22:02:55.815Z,11.27
2023-01-27T22:05:25.865Z,11.75
2023-01-27T22:07:54.743Z,11.43
2023-01-27T22:10:24.700Z,11.27
2023-01-27T22:12:57.211Z,11.80
2023-01-27T22:15:28.729Z,12.00
2023-01-27T22:17:57.373Z,11.60
2023-01-27T22:20:27.458Z,11.45
2023-01-27T22:22:56.181Z,11.77
2023-01-27T22:25:25.857Z,11.52
2023-01-27T22:27:55.766Z,11.88
2023-01-27T22:30:24.347Z,11.68
2023-01-27T22:32:52.986Z,11.43
2023-01-27T22:35:21.641Z,11.65
2023-01-27T22:37:53.097Z,11.40
2023-01-27T22:40:21.782Z,11.63
2023-01-27T22:42:50.682Z,11.50
2023-01-27T22:45:19.448Z,11.07
2023-01-27T22:47:49.493Z,12.23
2023-01-27T22:50:18.700Z,11.70
2023-01-27T22:52:47.221Z,12.00
2023-01-27T22:55:17.479Z,11.60
2023-01-27T22:57:47.880Z,11.00
2023-01-27T23:00:17.855Z,10.60
2023-01-27T23:02:46.467Z,11.20
2023-01-27T23:05:15.389Z,11.35
2023-01-27T23:07:44.551Z,11.27
2023-01-27T23:10:13.081Z,10.95
2023-01-27T23:12:43.205Z,10.85
2023-01-27T23:15:13.024Z,11.40
2023-01-27T23:17:41.869Z,11.45
2023-01-27T23:20:12.290Z,11.00
2023-01-27T23:22:41.179Z,11.15
2023-01-27T23:25:11.694Z,10.52
2023-01-27T23:27:40.364Z,10.45
2023-01-27T23:30:12.625Z,10.82
2023-01-27T23:32:41.195Z,11.77
2023-01-27T23:35:10.779Z,10.52
2023-01-27T23:37:42.080Z,10.85
2023-01-27T23:40:12.913Z,11.10
2023-01-27T23:42:41.415Z,10.48
2023-01-27T23:45:12.482Z,9.98
2023-01-27T23:47:42.705Z,10.23
2023-01-27T23:50:12.392Z,10.95
2023-01-27T23:52:40.913Z,10.90
2023-01-27T23:55:10.288Z,10.73
2023-01-27T23:57:38.764Z,11.50
